F/V Berriz Patxiku — ECES — position and weather

sailwx.info

Track history (hours):
 
Tides and Currents Weather Stations Pressure Air Temp Water Temp Dewpoint Dewpoint Depression Visibility Wind Speed Wind Dir Waves Ship Positions

F/V Berriz Patxiku

Last reported at 2017-Jun-26 08:09 UTC. Time now 2017-Jun-27 17:20 UTC.
Position N 43°19' W 002°12'.

Length 30 m.

Type: Fishing. MMSI: 224106260.

Date/timePositionNaut miles runAvg speedWind from/ knotsBaromVisibWave heightAir tempDewpointWater temp
2017-Jun-26 08:09N 43°19' W 002°12'0 1.7
2017-Jun-26 08:00N 43°18' W 002°12'0 0.0
2017-Jun-26 07:29N 43°18' W 002°12'0 0.2
2017-Jun-26 06:57N 43°18' W 002°12'0 0.0
2017-Jun-26 06:30N 43°18' W 002°12'  
2017-Jun-21 22:04N 43°37' W 003°20'0 0.9
2017-Jun-21 21:58N 43°37' W 003°21'1 0.8
2017-Jun-21 21:16N 43°37' W 003°21'0 0.9
2017-Jun-21 20:49N 43°37' W 003°22'1 0.9
2017-Jun-21 19:21N 43°37' W 003°24'7 0.6
2017-Jun-21 07:24N 43°30' W 003°28'511.4
2017-Jun-21 06:59N 43°34' W 003°32'510.9
2017-Jun-21 06:30N 43°37' W 003°37'611.4
2017-Jun-21 06:00N 43°42' W 003°42'2 4.8
2017-Jun-21 05:30N 43°44' W 003°44'0 0.4
2017-Jun-21 05:01N 43°44' W 003°44'0 0.1
2017-Jun-21 04:30N 43°44' W 003°44'2 3.1
2017-Jun-21 04:00N 43°43' W 003°45'0 0.3
2017-Jun-21 03:28N 43°43' W 003°45'0 0.5
2017-Jun-21 03:00N 43°43' W 003°45'1 1.5
2017-Jun-21 02:30N 43°43' W 003°45'0 0.2
2017-Jun-21 02:00N 43°43' W 003°45'0 0.3
2017-Jun-21 01:13N 43°43' W 003°45'4 7.6
2017-Jun-21 00:40N 43°46' W 003°48'1 7.7
2017-Jun-21 00:30N 43°48' W 003°49'4 7.9
2017-Jun-21 00:00N 43°51' W 003°52'4 7.6
2017-Jun-20 23:30N 43°53' W 003°56'4 8.1
2017-Jun-20 22:59N 43°49' W 003°57'4 8.1
2017-Jun-20 22:30N 43°46' W 003°59'4 8.1
2017-Jun-20 22:00N 43°42' W 004°00'2 4.3
2017-Jun-20 21:29N 43°39' W 004°01'2 4.3
2017-Jun-20 21:01N 43°38' W 004°03'5 9.1
2017-Jun-20 20:28N 43°36' W 004°09'1 2.8
2017-Jun-20 20:00N 43°35' W 004°10'0 0.4
2017-Jun-20 19:30N 43°35' W 004°10'1 2.2
2017-Jun-20 18:59N 43°35' W 004°09'4 7.5
2017-Jun-20 18:28N 43°38' W 004°05'4 7.8
2017-Jun-20 18:00N 43°41' W 004°03'1 0.3
2017-Jun-20 14:53N 43°40' W 004°03'0 0.4
2017-Jun-20 14:30N 43°40' W 004°03'82 2.7
2017-Jun-19 08:33N 43°24' W 002°11'0 0.1
2017-Jun-19 08:30N 43°24' W 002°11'0 0.5
2017-Jun-19 08:01N 43°24' W 002°11'5 9.3
2017-Jun-19 07:30N 43°19' W 002°11'  
Track history (hours):
 
Tides and Currents Weather Stations Pressure Air Temp Water Temp Dewpoint Dewpoint Depression Visibility Wind Speed Wind Dir Waves Ship Positions

F/V Berriz Patxiku

Last reported at 2017-Jun-26 08:09 UTC. Time now 2017-Jun-27 17:20 UTC.
Position N 43°19' W 002°12'.

Length 30 m.

Type: Fishing. MMSI: 224106260.

Date/timePositionNaut miles runAvg speedWind from/ knotsBaromVisibWave heightAir tempDewpointWater temp
2017-Jun-26 08:09N 43°19' W 002°12'0 1.7
2017-Jun-26 08:00N 43°18' W 002°12'0 0.0
2017-Jun-26 07:29N 43°18' W 002°12'0 0.2
2017-Jun-26 06:57N 43°18' W 002°12'0 0.0
2017-Jun-26 06:30N 43°18' W 002°12'  
2017-Jun-21 22:04N 43°37' W 003°20'0 0.9
2017-Jun-21 21:58N 43°37' W 003°21'1 0.8
2017-Jun-21 21:16N 43°37' W 003°21'0 0.9
2017-Jun-21 20:49N 43°37' W 003°22'1 0.9
2017-Jun-21 19:21N 43°37' W 003°24'7 0.6
2017-Jun-21 07:24N 43°30' W 003°28'511.4
2017-Jun-21 06:59N 43°34' W 003°32'510.9
2017-Jun-21 06:30N 43°37' W 003°37'611.4
2017-Jun-21 06:00N 43°42' W 003°42'2 4.8
2017-Jun-21 05:30N 43°44' W 003°44'0 0.4
2017-Jun-21 05:01N 43°44' W 003°44'0 0.1
2017-Jun-21 04:30N 43°44' W 003°44'2 3.1
2017-Jun-21 04:00N 43°43' W 003°45'0 0.3
2017-Jun-21 03:28N 43°43' W 003°45'0 0.5
2017-Jun-21 03:00N 43°43' W 003°45'1 1.5
2017-Jun-21 02:30N 43°43' W 003°45'0 0.2
2017-Jun-21 02:00N 43°43' W 003°45'0 0.3
2017-Jun-21 01:13N 43°43' W 003°45'4 7.6
2017-Jun-21 00:40N 43°46' W 003°48'1 7.7
2017-Jun-21 00:30N 43°48' W 003°49'4 7.9
2017-Jun-21 00:00N 43°51' W 003°52'4 7.6
2017-Jun-20 23:30N 43°53' W 003°56'4 8.1
2017-Jun-20 22:59N 43°49' W 003°57'4 8.1
2017-Jun-20 22:30N 43°46' W 003°59'4 8.1
2017-Jun-20 22:00N 43°42' W 004°00'2 4.3
2017-Jun-20 21:29N 43°39' W 004°01'2 4.3
2017-Jun-20 21:01N 43°38' W 004°03'5 9.1
2017-Jun-20 20:28N 43°36' W 004°09'1 2.8
2017-Jun-20 20:00N 43°35' W 004°10'0 0.4
2017-Jun-20 19:30N 43°35' W 004°10'1 2.2
2017-Jun-20 18:59N 43°35' W 004°09'4 7.5
2017-Jun-20 18:28N 43°38' W 004°05'4 7.8
2017-Jun-20 18:00N 43°41' W 004°03'1 0.3
2017-Jun-20 14:53N 43°40' W 004°03'0 0.4
2017-Jun-20 14:30N 43°40' W 004°03'82 2.7
2017-Jun-19 08:33N 43°24' W 002°11'0 0.1
2017-Jun-19 08:30N 43°24' W 002°11'0 0.5
2017-Jun-19 08:01N 43°24' W 002°11'5 9.3
2017-Jun-19 07:30N 43°19' W 002°11'  

Dump ship's entire track history